Tiempo atmosférico en la estación meteorológica de Motril, Granada (3 m.)



Fecha
DESCASC
Temp. máxima en grados centígrados (hora)
DESCASC
Temp. mínima en grados centígrados (hora)
DESCASC
Temp. media en grados centígrados
DESCASC
Racha de viento máxima en m/sg (hora)
DESCASC
Velocidad máxima media en intervalos de 10 minutos(hora)
DESCASC
Precipitaciones diarias en mm
DESCASC
Precipitaciones de 00:00 a 06:00 en mm
DESCASC
Precipitaciones de 06:00 a 12:00 en mm
DESCASC
Precipitaciones de 12:00 a 18:00 en mm
DESCASC
Precipitaciones de 18:00 a 24:00 en mm
DESCASC
23-06-2019 24.4 (09:10) 19 (06:40) 21.7 4.72 (16:20) 2.78 (15:20) 0 0 0 0 0
22-06-2019 23.2 (15:20) 17.4 (06:30) 20.3 6.67 (17:20) 5.28 (16:20) 0 0 0 0 0
21-06-2019 23.7 (09:30) 17.6 (06:40) 20.7 7.78 (02:20) 4.72 (10:10) 0 0 0 0 0
20-06-2019 24.5 (18:20) 19.3 (00:00) 21.9 13.06 (11:50) 5.83 (15:00) 0 0 0 0 0
19-06-2019 25.4 (18:50) 16.6 (00:00) 21 5.83 (10:20) 3.33 (12:10) 0 0 0 0 0
18-06-2019 23.5 (09:00) 17.2 (00:00) 20.4 6.39 (19:10) 3.33 (19:10) 0 0 0 0 0
17-06-2019 25.3 (09:00) 16 (00:00) 20.6 5 (14:10) 3.33 (16:50) 0 0 0 0 0
16-06-2019 23.2 (13:50) 15.1 (00:00) 19.2 5.56 (16:30) 3.61 (16:20) 0 0 0 0 0
15-06-2019 22.7 (12:20) 16.6 (00:00) 19.7 6.94 (11:30) 4.17 (12:00) 0 0 0 0 0
14-06-2019 21 (14:00) 17.2 (00:00) 19.1 16.11 (10:00) 7.78 (10:00) 0 0 0 0 0
13-06-2019 22.5 (16:40) 16.7 (00:00) 19.6 7.78 (11:40) 4.72 (12:10) 0 0 0 0 0
12-06-2019 22.9 (11:20) 19.2 (00:00) 21.1 13.89 (00:50) 8.33 (16:10) 0 0 0 0 0
11-06-2019 22.8 (16:50) 16.4 (00:00) 19.6 15.56 (13:10) 8.61 (17:30) 0 0 0 0 0
10-06-2019 25.5 (09:10) 17.6 (00:00) 21.6 13.06 (15:00) 7.22 (16:00) 0 0 0 0 0
09-06-2019 22 (20:40) 19.3 (00:00) 20.6 10 (15:50) 4.72 (15:40) 0 0 0 0 0
08-06-2019 23.8 (09:50) 16.8 (00:00) 20.3 8.89 (19:30) 7.78 (12:40) 0 0 0 0 0
07-06-2019 25 (09:30) 15.1 (00:00) 20.1 10.83 (12:20) 5.83 (12:20) 0 0 0 0 0
06-06-2019 24.9 (09:10) 18.2 (00:00) 21.6 8.61 (20:30) 3.89 (19:20) 0 0 0 0 0
05-06-2019 24 (10:30) 19.3 (00:00) 21.6 15.56 (14:40) 7.22 (13:00) 0 0 0 0 0
04-06-2019 24.8 (16:30) 15.4 (00:00) 20.1 5.28 (11:00) 3.61 (13:50) 0 0 0 0 0
03-06-2019 27.4 (09:30) 15.8 (00:00) 21.6 4.72 (13:00) 3.06 (12:50) 0 0 0 0 0
02-06-2019 26.7 (09:30) 15.6 (00:00) 21.2 5.56 (17:10) 3.33 (14:20) 0 0 0 0 0
01-06-2019 -- (--) -- (--) -- -- (--) 6.11 (20:40) 0 0 0 0 0
31-05-2019 25.8 (11:20) 15.2 (00:00) 20.5 13.33 (13:50) 8.33 (14:30) 0 0 0 0 0
30-05-2019 23.5 (11:20) 15.9 (00:00) 19.7 11.94 (17:10) 7.5 (13:00) 0 0 0 0 0
29-05-2019 23.3 (11:50) 17.6 (00:00) 20.4 11.67 (16:10) 8.61 (16:20) 0 0 0 0 0
28-05-2019 26.1 (09:10) 17.4 (00:00) 21.8 9.17 (13:20) 6.94 (13:20) 0 0 0 0 0
27-05-2019 26.5 (09:30) 15.8 (00:00) 21.2 4.72 (14:10) 3.06 (14:30) 0 0 0 0 0
26-05-2019 24.2 (09:10) 15.6 (00:00) 19.9 5.28 (09:50) 2.78 (14:20) 0 0 0 0 0
25-05-2019 23.4 (14:50) 17.8 (00:00) 20.6 7.5 (00:50) 5 (00:30) 0 0 0 0 0

Gráficas

Temp. máximas Temp. mínimas Temp. medias Precipitaciones Rachas de viento máximas Velocidades máximas media en intervalos de 10 minutos

Datos horarios

Fecha y hora oficial Temperatura (ºC) Velocidad del viento (km/h) Dirección del viento Racha (km/h) Dirección de racha Precipitación (mm) Presión (hPa) Tendencia (hPa) Humedad (%)
2019-06-23 23:00:00 21.2 4 Sur 7 Sur 0 1012.4 1 85
2019-06-23 22:00:00 21.5 2 Noroeste 15 Oeste 0 1011.9 0.7 84
2019-06-23 21:00:00 22.1 7 Oeste 13 Oeste 0 1011.6 0 81
2019-06-23 20:00:00 22.7 7 Sudoeste 15 Oeste 0 1011.4 -0.3 79
2019-06-23 19:00:00 23.5 7 Sudoeste 16 Sudoeste 0 1011.2 -1 77
2019-06-23 18:00:00 23.6 9 Sudoeste 17 Sur 0 1011.6 -1.3 76
2019-06-23 17:00:00 23.9 9 Sudoeste 17 Oeste 0 1011.7 -1.7 75
2019-06-23 16:00:00 23.1 9 Sur 16 Sur 0 1012.2 -1.4 81
2019-06-23 15:00:00 23.1 9 Sur 15 Sudoeste 0 1012.9 -0.4 77
2019-06-23 14:00:00 22.7 6 Sudoeste 12 Sudoeste 0 1013.4 -0.1 82
2019-06-23 13:00:00 22.7 5 Sudeste 12 Sur 0 1013.6 0.5 84
2019-06-23 12:00:00 21.8 6 Sur 10 Sur 0 1013.3 0.2 84
2019-06-23 11:00:00 22.5 5 Sur 8 Sur 0 1013.5 0.7 80
2019-06-23 10:00:00 22.3 4 Sur 6 Sur 0 1013.1 0.5 77
2019-06-23 09:00:00 24.1 0 Calma 3 Este 0 1013.1 0.3 74
2019-06-23 08:00:00 20.1 0 Calma 4 Sudeste 0 1012.8 0.2 93
2019-06-23 07:00:00 19.1 0 Calma 3 Nordeste 0 1012.6 -0.5 93
2019-06-23 06:00:00 19.4 0 Calma 5 Norte 0 1012.8 -0.3 93
2019-06-23 05:00:00 19.4 3 Norte 5 Norte 0 1012.6 -0.9 93
2019-06-23 04:00:00 19.5 0 Calma 2 Nordeste 0 1013.1 -0.5 93
2019-06-23 03:00:00 19.7 0 Calma 6 Noroeste 0 1013.1 -0.5 92
2019-06-23 02:00:00 20.3 3 Noroeste 7 Noroeste 0 1013.5 0.2 91
2019-06-23 01:00:00 20.3 2 Noroeste 6 Noroeste 0 1013.6 0.4 91
2019-06-23 00:00:00 20.8 2 Sudoeste 5 Sur 0 1013.6 0.5 90
2019-06-22 23:00:00 21.3 3 Sur 4 Sur 0 1013.3 0.1 87
2019-06-22 22:00:00 21.3 3 Sudoeste 12 Sudoeste 0 1013.2 0.1 89
2019-06-22 21:00:00 21.5 7 Sur 16 Oeste 0 1013.1 0 89
2019-06-22 20:00:00 21.9 8 Sudoeste 19 Sur 0 1013.2 0 87
2019-06-22 19:00:00 22.3 12 Sur 22 Sudeste 0 1013.1 -0.9 87
2019-06-22 18:00:00 22.6 15 Sudeste 24 Sudeste 0 1013.1 -1.5 84
2019-06-22 17:00:00 23 15 Sudeste 24 Sudeste 0 1013.2 -1.8 81
2019-06-22 16:00:00 22.9 17 Sudeste 22 Sudeste 0 1014 -1.2 81
2019-06-22 15:00:00 22.9 15 Sudeste 21 Sudeste 0 1014.6 -0.6 81
2019-06-22 14:00:00 21.7 10 Sur 17 Sur 0 1015 -0.1 85
2019-06-22 13:00:00 21.2 13 Sur 22 Sur 0 1015.2 -0.1 85
2019-06-22 12:00:00 20.9 8 Sur 14 Sur 0 1015.2 0.3 94
2019-06-22 11:00:00 20.5 8 Sudoeste 15 Sudoeste 0 1015.1 0.3 96
2019-06-22 10:00:00 20.4 9 Sudoeste 14 Sudoeste 0 1015.3 1.2 95
2019-06-22 09:00:00 21.6 4 Sudoeste 8 Sudoeste 0 1014.9 1.1 85
2019-06-22 08:00:00 20.6 5 Sudoeste 14 Sudoeste 0 1014.8 1.2 85
2019-06-22 07:00:00 17.8 5 Sudoeste 10 Sudoeste 0 1014.1 0.4 94
2019-06-22 06:00:00 18.8 3 Oeste 7 Oeste 0 1013.8 0 96
2019-06-22 05:00:00 17.7 3 Sudeste 5 Norte 0 1013.6 -0.4 96
2019-06-22 04:00:00 19.5 0 Calma 9 Noroeste 0 1013.7 -0.1 96
2019-06-22 03:00:00 19.4 5 Sudoeste 13 Noroeste 0 1013.8 0.4 96
2019-06-22 02:00:00 19.5 7 Noroeste 14 Noroeste 0 1014 1 95
2019-06-22 01:00:00 19.6 0 Calma 15 Sur 0 1013.8 1.6 91
2019-06-22 00:00:00 20.2 8 Sudeste 14 Sur 0 1013.4 1.3 90
2019-06-21 23:00:00 20.3 0 Calma 4 Sur 0 1013 1.2 85
2019-06-21 22:00:00 20.4 0 Calma 5 Sudeste 0 1012.2 0.7 84
2019-06-21 21:00:00 21.9 3 Sudeste 11 Sur 0 1012.1 0.5 77
2019-06-21 20:00:00 21.5 6 Sur 10 Sur 0 1011.8 -0.2 77
2019-06-21 19:00:00 22 6 Sur 15 Sur 0 1011.5 -1 77
2019-06-21 18:00:00 21 11 Sur 17 Sur 0 1011.6 -1.5 81
2019-06-21 17:00:00 21 12 Sur 18 Sudoeste 0 1012 -1.3 83
2019-06-21 16:00:00 20.5 12 Sudoeste 18 Sudoeste 0 1012.5 -1 83
2019-06-21 15:00:00 21.3 11 Sur 17 Sur 0 1013.1 -0.7 81
2019-06-21 14:00:00 21 9 Sudoeste 18 Sudoeste 0 1013.3 0 82
2019-06-21 13:00:00 21.7 6 Sur 11 Sudoeste 0 1013.5 0.5 77
2019-06-21 12:00:00 21.2 9 Sur 16 Sudeste 0 1013.8 1.6 82
2019-06-21 11:00:00 21.4 14 Sudeste 21 Sudeste 0 1013.3 1.4 83
2019-06-21 10:00:00 21.5 16 Sudeste 21 Sudeste 0 1013 1.7 80
2019-06-21 09:00:00 22.7 3 Sur 7 Este 0 1012.2 1.3 77
2019-06-21 08:00:00 19.6 0 Calma 11 Sur 0 1011.9 1.4 94
2019-06-21 07:00:00 18.4 3 Sur 8 Sudoeste 0 1011.3 0.8 96
2019-06-21 06:00:00 18.2 5 Nordeste 17 Oeste 0 1010.9 0.4 94
2019-06-21 05:00:00 19.1 9 Oeste 16 Oeste 0 1010.5 0 94
2019-06-21 04:00:00 19.2 3 Oeste 19 Sudoeste 0 1010.5 -0.1 93
2019-06-21 03:00:00 19.1 9 Oeste 28 Oeste 0 1010.5 -0.2 91
2019-06-21 02:00:00 19.2 14 Oeste 28 Oeste 0 1010.5 -0.3 90
2019-06-21 01:00:00 19.5 11 Oeste 24 Oeste 0 1010.6 0.5 90
2019-06-21 00:00:00 19.8 11 Oeste 22 Oeste 0 1010.7 1 83
2019-06-20 23:00:00 20.6 13 Oeste 30 Oeste 0 1010.8 1.1 76
2019-06-20 22:00:00 21.4 10 Oeste 24 Oeste 0 1010.1 0.3 70
2019-06-20 21:00:00 22.8 13 Oeste 37 Sudoeste 0 1009.7 -0.9 64
2019-06-20 20:00:00 23.7 14 Oeste 40 Oeste 0 1009.7 -1.1 60
2019-06-20 19:00:00 24.2 17 Oeste 41 Sudoeste 0 1009.8 -1.2 59
2019-06-20 18:00:00 23.7 15 Oeste 41 Oeste 0 1010.6 -0.7 61
2019-06-20 17:00:00 23.6 17 Sudoeste 44 Sudoeste 0 1010.8 -1.2 66
2019-06-20 16:00:00 21.8 16 Sudoeste 41 Sudoeste 0 1011 -1.2 76
2019-06-20 15:00:00 22 21 Sudoeste 42 Sudoeste 0 1011.3 -0.7 74
2019-06-20 14:00:00 22.1 14 Sudoeste 33 Sudoeste 0 1012 0 76
2019-06-20 13:00:00 21.6 13 Oeste 31 Sudoeste 0 1012.2 0.3 80
2019-06-20 12:00:00 21.4 13 Oeste 47 Oeste 0 1012 0.5 81
2019-06-20 11:00:00 21.1 13 Oeste 34 Oeste 0 1012 0.9 85
2019-06-20 10:00:00 21.4 10 Oeste 30 Sudoeste 0 1011.9 1.2 84
2019-06-20 09:00:00 20.7 12 Oeste 26 Oeste 0 1011.5 1.2 87
2019-06-20 08:00:00 20.5 10 Oeste 21 Oeste 0 1011.1 0.5 86
2019-06-20 07:00:00 19.8 8 Oeste 20 Oeste 0 1010.7 0 90
2019-06-20 06:00:00 19.5 6 Oeste 17 Oeste 0 1010.3 -0.5 96
2019-06-20 05:00:00 19.5 0 Calma 19 Oeste 0 1010.6 -0.3 96
2019-06-20 04:00:00 19.5 6 Noroeste 13 Oeste 0 1010.7 -0.4 95
2019-06-20 03:00:00 19.8 0 Calma 8 Oeste 0 1010.8 0.2 94
2019-06-20 02:00:00 19.9 3 Noroeste 10 Oeste 0 1010.9 0 92
2019-06-20 01:00:00 20.2 5 Oeste 16 Oeste 0 1011.1 0.8 90
2019-06-20 00:00:00 20.7 3 Noroeste 9 Oeste 0 1010.6 0.1 84
2019-06-19 23:00:00 21.7 3 Noroeste 17 Oeste 0 1010.9 0.2 77
2019-06-19 22:00:00 21.9 5 Oeste 15 Oeste 0 1010.3 -0.6 77
2019-06-19 21:00:00 22.9 9 Oeste 19 Oeste 0 1010.5 -1.4 71
2019-06-19 20:00:00 24.5 4 Sudoeste 19 Oeste 0 1010.7 -1.5 66
2019-06-19 19:00:00 24.5 3 Sudeste 21 Sudoeste 0 1010.9 -2 71
2019-06-19 18:00:00 23.7 5 Sur 17 Sudoeste 0 1011.9 -1.7 74
2019-06-19 17:00:00 23.4 9 Sur 18 Oeste 0 1012.2 -2 74
2019-06-19 16:00:00 23.7 4 Sur 16 Oeste 0 1012.9 -1.3 71
2019-06-19 15:00:00 22.8 7 Sudoeste 18 Sudoeste 0 1013.6 -0.1 74
2019-06-19 14:00:00 21.3 10 Sudoeste 18 Sur 0 1014.2 0.6 83
2019-06-19 13:00:00 21.1 10 Sur 20 Sur 0 1014.2 0.5 86
2019-06-19 12:00:00 21.5 11 Sudoeste 18 Sudoeste 0 1013.7 0.2 83
2019-06-19 11:00:00 21.7 8 Oeste 21 Oeste 0 1013.6 0.4 80
2019-06-19 10:00:00 21.1 9 Oeste 17 Sudoeste 0 1013.7 0.8 84
2019-06-19 09:00:00 21.1 3 Oeste 8 Norte 0 1013.5 0.7 84
2019-06-19 08:00:00 19.6 0 Calma 3 Nordeste 0 1013.2 0.5 88
2019-06-19 07:00:00 16.8 0 Calma 4 Nordeste 0 1012.9 0.5 91
2019-06-19 06:00:00 17.2 3 Nordeste 6 Nordeste 0 1012.8 0.1 93
2019-06-19 05:00:00 18.6 2 Este 13 Sudeste 0 1012.7 -0.2 93
2019-06-19 04:00:00 18.8 3 Noroeste 10 Norte 0 1012.4 -0.4 88
2019-06-19 03:00:00 17.5 4 Norte 9 Norte 0 1012.7 -0.5 91
2019-06-19 02:00:00 19.4 4 Noroeste 8 Oeste 0 1012.9 -0.3 88
2019-06-19 01:00:00 19.3 5 Noroeste 13 Oeste 0 1012.8 0 85
2019-06-19 00:00:00 19.4 0 Calma 13 Oeste 0 1013.2 0.3 84
2019-06-18 23:00:00 19.9 5 Noroeste 13 Oeste 0 1013.2 0.2 77
2019-06-18 22:00:00 20.8 2 Sudoeste 13 Noroeste 0 1012.8 -0.6 75
2019-06-18 21:00:00 22.1 4 Noroeste 13 Oeste 0 1012.9 -1 70
2019-06-18 20:00:00 22.2 5 Sudoeste 23 Oeste 0 1013 -1.4 77
2019-06-18 19:00:00 23.1 8 Oeste 22 Oeste 0 1013.4 -1.4 64
2019-06-18 18:00:00 22.7 9 Sudoeste 20 Sudoeste 0 1013.9 -1.1 65
2019-06-18 17:00:00 21.3 9 Sur 14 Sur 0 1014.4 -0.9 81
2019-06-18 16:00:00 21.2 9 Sur 16 Sur 0 1014.8 -0.7 87
2019-06-18 15:00:00 21.1 10 Sur 15 Sudoeste 0 1015 -0.6 84
2019-06-18 14:00:00 20.6 10 Sur 16 Sudoeste 0 1015.3 -0.1 87
2019-06-18 13:00:00 20.9 10 Sur 15 Sur 0 1015.5 0.2 86
2019-06-18 12:00:00 20.1 10 Sur 18 Sudoeste 0 1015.6 0.8 89
2019-06-18 11:00:00 20.2 9 Sudoeste 19 Oeste 0 1015.4 1.3 89
2019-06-18 10:00:00 20.5 6 Sudoeste 17 Sudoeste 0 1015.3 1.8 85
2019-06-18 09:00:00 23.3 0 Calma 7 Norte 0 1014.8 1.5 65
2019-06-18 08:00:00 20.4 0 Calma 5 Este 0 1014.1 0.7 65
2019-06-18 07:00:00 17.5 5 Norte 10 Sudoeste 0 1013.5 0 76
2019-06-18 06:00:00 18.4 0 Calma 7 Norte 0 1013.3 -1 69
2019-06-18 05:00:00 19.2 4 Nordeste 6 Nordeste 0 1013.4 -1.2 70
2019-06-18 04:00:00 18.8 4 Nordeste 6 Nordeste 0 1013.5 -1.5 73
2019-06-18 03:00:00 17.7 0 Calma 7 Nordeste 0 1014.3 -0.6 81
2019-06-18 02:00:00 18.5 3 Este 7 Nordeste 0 1014.6 0.1 88
2019-06-18 01:00:00 19.3 2 Noroeste 6 Sur 0 1015 0.5 92
2019-06-18 00:00:00 19.7 2 Sudoeste 4 Este 0 1014.9 0.4 92
2019-06-17 23:00:00 20 2 Norte 7 Sudoeste 0 1014.5 -0.2 91
2019-06-17 22:00:00 20.4 5 Oeste 9 Oeste 0 1014.5 -0.1 89
2019-06-17 21:00:00 21.1 5 Oeste 14 Sudoeste 0 1014.5 -0.1 85
2019-06-17 20:00:00 21.2 7 Sudoeste 14 Sur 0 1014.7 -0.2 85
2019-06-17 19:00:00 21.7 8 Sur 15 Sudoeste 0 1014.6 -1.3 82
2019-06-17 18:00:00 21.7 8 Sudoeste 18 Sur 0 1014.6 -2 82
2019-06-17 17:00:00 21.1 12 Sur 17 Sudoeste 0 1014.9 -1.9 83
2019-06-17 16:00:00 21.5 11 Sudoeste 18 Sudoeste 0 1015.9 -1.1 82
2019-06-17 15:00:00 21.5 10 Sur 18 Sur 0 1016.6 -0.7 77
2019-06-17 14:00:00 21 11 Sur 18 Sur 0 1016.8 -0.5 77
2019-06-17 13:00:00 21.2 9 Sur 15 Sur 0 1017 -0.1 77
2019-06-17 12:00:00 20.7 10 Sur 13 Sur 0 1017.3 0.2 84
2019-06-17 11:00:00 20.5 9 Sur 12 Sur 0 1017.3 0.4 81
2019-06-17 10:00:00 22.8 5 Sur 8 Sur 0 1017.1 0.5 70
2019-06-17 09:00:00 24.5 0 Calma 4 Sudeste 0 1017.1 0.6 64
2019-06-17 08:00:00 19.2 3 Nordeste 8 Nordeste 0 1016.9 0.5 86
2019-06-17 07:00:00 16.7 3 Nordeste 7 Nordeste 0 1016.6 -0.2 90
2019-06-17 06:00:00 16.6 0 Calma 5 Nordeste 0 1016.5 -0.8 89
2019-06-17 05:00:00 16.9 0 Calma 3 Norte 0 1016.4 -1.4 88
2019-06-17 04:00:00 17.4 0 Calma 8 Nordeste 0 1016.8 -1.1 83
2019-06-17 03:00:00 18 4 Nordeste 7 Norte 0 1017.3 -0.9 80
2019-06-17 02:00:00 18.1 0 Calma 4 Nordeste 0 1017.8 -0.1 80
2019-06-17 01:00:00 19.1 3 Nordeste 5 Sudeste 0 1017.9 0.3 80
2019-06-17 00:00:00 19.6 2 Sudeste 5 Sudeste 0 1018.2 0.9 77
2019-06-16 23:00:00 20.3 0 Calma 6 Noroeste 0 1017.9 0.5 75
2019-06-16 22:00:00 20.8 4 Oeste 9 Sudoeste 0 1017.6 0.4 75
2019-06-16 21:00:00 22 3 Oeste 11 Oeste 0 1017.3 0.3 70
2019-06-16 20:00:00 22.6 6 Sudoeste 18 Sudoeste 0 1017.4 0.6 70
2019-06-16 19:00:00 21.8 8 Sudoeste 18 Sudoeste 0 1017.2 -0.2 73
2019-06-16 18:00:00 22.4 8 Sudoeste 20 Sur 0 1017 -0.1 71
2019-06-16 17:00:00 21.4 7 Sudoeste 20 Sur 0 1016.8 -1 77
2019-06-16 16:00:00 21.7 9 Sudoeste 18 Sudoeste 0 1017.4 -0.7 79
2019-06-16 15:00:00 20.9 10 Sudoeste 17 Sudoeste 0 1017.1 -0.7 81
2019-06-16 14:00:00 21.5 5 Sur 13 Sudoeste 0 1017.8 1 77
2019-06-16 13:00:00 19.5 9 Sur 14 Sudoeste 0 1018.1 1.7 90
2019-06-16 12:00:00 19.9 9 Sudoeste 17 Sudoeste 0 1017.8 1.2 86
2019-06-16 11:00:00 20.4 7 Sur 13 Sudeste 0 1016.8 0.7 75
2019-06-16 10:00:00 20.9 8 Sudeste 13 Sudeste 0 1016.4 0.6 75
2019-06-16 09:00:00 20.6 0 Calma 6 Sudeste 0 1016.6 1.2 69
2019-06-16 08:00:00 16.6 4 Norte 6 Norte 0 1016.1 0.6 81
2019-06-16 07:00:00 15.7 2 Norte 8 Nordeste 0 1015.8 0.2 85
2019-06-16 06:00:00 16 4 Nordeste 7 Nordeste 0 1015.4 0.1 90
2019-06-16 05:00:00 16.4 0 Calma 7 Noroeste 0 1015.5 -0.4 90
2019-06-16 04:00:00 15.9 4 Norte 7 Norte 0 1015.6 -0.8 88
2019-06-16 03:00:00 16.6 0 Calma 6 Norte 0 1015.3 -1 84
2019-06-16 02:00:00 17 3 Nordeste 6 Nordeste 0 1015.9 -0.3 86
2019-06-16 01:00:00 17.4 5 Nordeste 8 Nordeste 0 1016.4 1.3 86
2019-06-16 00:00:00 18.2 4 Nordeste 6 Sur 0 1016.3 1.1 90
2019-06-15 23:00:00 19.4 3 Oeste 12 Sudoeste 0 1016.2 0.7 77
2019-06-15 22:00:00 19.7 3 Sudoeste 6 Sudoeste 0 1015.1 -0.3 74
2019-06-15 21:00:00 21.7 0 Calma 11 Sudoeste 0 1015.2 -0.4 65
2019-06-15 20:00:00 21.2 6 Sur 11 Sur 0 1015.5 -0.7 67
2019-06-15 19:00:00 21.7 6 Sur 11 Sur 0 1015.4 -1.1 67
2019-06-15 18:00:00 20.9 7 Sur 14 Sudoeste 0 1015.6 -0.9 70
2019-06-15 17:00:00 21.7 6 Sur 11 Sudoeste 0 1016.2 -0.7 68
2019-06-15 16:00:00 21.2 6 Sur 17 Sudoeste 0 1016.5 -0.1 74
2019-06-15 15:00:00 20.5 10 Sur 15 Sudoeste 0 1016.5 0.4 73
2019-06-15 14:00:00 21.2 6 Sur 15 Sur 0 1016.9 1.2 71
2019-06-15 13:00:00 19.9 10 Sur 19 Sudoeste 0 1016.6 0.3 73
2019-06-15 12:00:00 19.9 15 Sudoeste 25 Sudoeste 0 1016.1 0.2 69
2019-06-15 11:00:00 20.9 13 Sudoeste 24 Sudoeste 0 1015.7 0.4 59
2019-06-15 10:00:00 19.4 13 Sudoeste 18 Oeste 0 1016.3 1.1 74
2019-06-15 09:00:00 19.5 9 Sudoeste 18 Oeste 0 1015.9 1.4 72
2019-06-15 08:00:00 19 9 Oeste 16 Oeste 0 1015.3 0.8 63
2019-06-15 07:00:00 17.3 6 Sudoeste 17 Oeste 0 1015.2 0.5 80
2019-06-15 06:00:00 17.2 9 Oeste 19 Oeste 0 1014.5 -0.2 88
2019-06-15 05:00:00 17.2 11 Oeste 20 Oeste 0 1014.5 -0.5 90
2019-06-15 04:00:00 17.2 12 Oeste 21 Oeste 0 1014.7 -0.6 90
2019-06-15 03:00:00 17 5 Oeste 15 Oeste 0 1014.7 -0.3 90
2019-06-15 02:00:00 17 5 Oeste 13 Oeste 0 1015 0.4 91
2019-06-15 01:00:00 17.1 4 Noroeste 11 Oeste 0 1015.3 0.7 91
2019-06-15 00:00:00 17.4 6 Oeste 15 Oeste 0 1015 0.8 86
2019-06-14 23:00:00 17.5 8 Oeste 25 Oeste 0 1014.6 0.5 84
2019-06-14 22:00:00 18.1 10 Oeste 33 Oeste 0 1014.6 0.5 76
2019-06-14 21:00:00 19.5 13 Oeste 31 Oeste 0 1014.2 -0.2 65
2019-06-14 20:00:00 20.1 16 Oeste 40 Oeste 0 1014.1 -0.5 61
2019-06-14 19:00:00 20.3 17 Oeste 41 Oeste 0 1014.1 -0.5 63
2019-06-14 18:00:00 20.5 16 Oeste 40 Sudoeste 0 1014.4 -0.5 64
2019-06-14 17:00:00 19.8 18 Oeste 41 Oeste 0 1014.6 -0.9 69
2019-06-14 16:00:00 19.7 21 Oeste 41 Sudoeste 0 1014.6 -0.5 70
2019-06-14 15:00:00 19.5 21 Sudoeste 42 Oeste 0 1014.9 0.1 71
2019-06-14 14:00:00 20.3 15 Sudoeste 41 Sudoeste 0 1015.5 1.1 69
2019-06-14 13:00:00 19.1 22 Sudoeste 45 Sudoeste 0 1015.1 1.6 69
2019-06-14 12:00:00 19.5 21 Oeste 48 Sudoeste 0 1014.8 2 67
2019-06-14 11:00:00 19.3 19 Oeste 51 Oeste 0 1014.4 2.5 70
2019-06-14 10:00:00 18.7 28 Sudoeste 58 Oeste 0 1013.5 2.3 74
2019-06-14 09:00:00 18.1 19 Oeste 39 Oeste 0 1012.8 2 77
2019-06-14 08:00:00 18.9 19 Oeste 39 Oeste 0 1011.9 1.9 86
2019-06-14 07:00:00 18.6 14 Oeste 35 Oeste 0 1011.2 1.7 99
2019-06-14 06:00:00 19.2 15 Oeste 34 Oeste 0 1010.8 0.1 97
2019-06-14 05:00:00 19.7 15 Oeste 29 Oeste 0 1010 -2.4 89
2019-06-14 04:00:00 20 12 Oeste 22 Oeste 0 1009.5 -3.4 84
2019-06-14 03:00:00 20.2 6 Noroeste 15 Oeste 0 1010.7 -0.6 85
2019-06-14 02:00:00 19.6 9 Oeste 18 Oeste 0 1012.4 1.3 89
2019-06-14 01:00:00 19.6 4 Sudoeste 13 Sudoeste 0 1012.9 2.5 89
2019-06-14 00:00:00 20.6 4 Sudoeste 8 Noroeste 0 1011.3 1.9 80
2019-06-13 23:00:00 20.6 4 Noroeste 11 Sudoeste 0 1011.1 2.2 81
2019-06-13 22:00:00 20.3 6 Sudoeste 9 Sudoeste 0 1010.4 1.8 80
2019-06-13 21:00:00 21.1 6 Sudoeste 9 Sudoeste 0 1009.4 0.6 75
2019-06-13 20:00:00 22 3 Sudoeste 13 Oeste 0 1008.9 0 73
2019-06-13 19:00:00 21.6 4 Sudoeste 17 Sudoeste 0 1008.6 -0.7 74
2019-06-13 18:00:00 21.4 6 Sudoeste 17 Sur 0 1008.8 -0.8 75
2019-06-13 17:00:00 21.4 9 Sudoeste 20 Sudoeste 0 1008.9 -0.8 75
2019-06-13 16:00:00 21.7 10 Sudoeste 18 Sudoeste 0 1009.3 0 75
2019-06-13 15:00:00 21.3 11 Sudoeste 24 Sudoeste 0 1009.6 0.1 76
2019-06-13 14:00:00 21.2 16 Sudoeste 22 Sudoeste 0 1009.7 0.2 76
2019-06-13 13:00:00 20.9 13 Sudoeste 23 Sudoeste 0 1009.3 -0.2 77
2019-06-13 12:00:00 21.4 14 Sudoeste 28 Sudoeste 0 1009.5 0 74
2019-06-13 11:00:00 21 7 Sudoeste 18 Sudoeste 0 1009.5 0.2 77
2019-06-13 10:00:00 21.1 6 Oeste 18 Oeste 0 1009.5 0 75
2019-06-13 09:00:00 19.8 4 Oeste 9 Oeste 0 1009.5 0 82
2019-06-13 08:00:00 18.4 3 Norte 7 Nordeste 0 1009.3 0.6 91
2019-06-13 07:00:00 17.1 0 Calma 8 Nordeste 0 1009.5 0.1 95
2019-06-13 06:00:00 17 3 Nordeste 9 Nordeste 0 1009.5 -0.4 95
2019-06-13 05:00:00 17.4 0 Calma 9 Norte 0 1008.7 -1.9 94
2019-06-13 04:00:00 17.6 3 Noroeste 6 Noroeste 0 1009.4 -1.7 95
2019-06-13 03:00:00 17.9 0 Calma 6 Oeste 0 1009.9 -1.3 94
2019-06-13 02:00:00 18.7 2 Noroeste 6 Noroeste 0 1010.6 -1 93
2019-06-13 01:00:00 19.3 2 Noroeste 9 Sudoeste 0 1011.1 0.4 91
2019-06-13 00:00:00 19.4 5 Sudoeste 8 Oeste 0 1011.2 1.1 89
2019-06-12 23:00:00 19.4 3 Noroeste 17 Sudeste 0 1011.6 1.9 89
2019-06-12 22:00:00 19.3 14 Este 28 Este 0 1010.7 1.2 89
2019-06-12 21:00:00 19.4 21 Sudeste 28 Sudeste 0 1010.1 -0.1 87
2019-06-12 20:00:00 19.8 20 Sudeste 30 Sudeste 0 1009.7 -1.1 82
2019-06-12 19:00:00 20.7 21 Sudeste 31 Sudeste 0 1009.5 -1.4 76
2019-06-12 18:00:00 21.1 22 Sudeste 37 Este 0 1010.2 -1.1 73
2019-06-12 17:00:00 21.1 24 Sudeste 41 Sudeste 0 1010.8 -0.9 73
2019-06-12 16:00:00 21.3 27 Sudeste 39 Sudeste 0 1010.9 -0.9 70
2019-06-12 15:00:00 21 22 Sudeste 39 Este 0 1011.3 -0.6 71
2019-06-12 14:00:00 21.2 23 Sudeste 33 Sudeste 0 1011.7 -0.1 69
2019-06-12 13:00:00 21.7 21 Sudeste 38 Sudeste 0 1011.8 0 66
2019-06-12 12:00:00 21.5 28 Sudeste 40 Sudeste 0 1011.9 0.2 63
2019-06-12 11:00:00 22.3 19 Este 35 Este 0 1011.8 0.7 57
2019-06-12 10:00:00 21.8 12 Este 27 Este 0 1011.8 1.1 66
2019-06-12 09:00:00 20.2 14 Este 21 Este 0 1011.7 1.2 74
2019-06-12 08:00:00 20.1 5 Este 20 Este 0 1011.1 0.9 77
2019-06-12 07:00:00 19.4 12 Este 26 Este 0 1010.7 0.8 81
2019-06-12 06:00:00 19.5 18 Este 27 Este 0 1010.5 1.1 81
2019-06-12 05:00:00 19.2 7 Este 27 Este 0 1010.2 1.2 84
2019-06-12 04:00:00 19.3 13 Este 33 Este 0 1009.9 0.9 85
2019-06-12 03:00:00 19.4 16 Este 37 Este 0 1009.4 1 86
2019-06-12 02:00:00 19.8 13 Este 45 Este 0 1009 1.9 86
2019-06-12 01:00:00 20.4 20 Este 50 Este 0 1009 3.5 77
2019-06-12 00:00:00 19.5 18 Sudeste 31 Sudeste 0 1008.4 2.8 81
2019-06-11 23:00:00 19.2 3 Oeste 20 Sudoeste 0 1007.1 1.5 84
2019-06-11 22:00:00 19.4 17 Oeste 33 Oeste 0 1005.5 -0.1 80
2019-06-11 21:00:00 19.4 17 Oeste 48 Sudoeste 0 1005.6 0.7 77
2019-06-11 20:00:00 20.5 21 Oeste 45 Oeste 0 1005.6 0.3 73
2019-06-11 19:00:00 21 23 Sudoeste 54 Oeste 0 1005.6 -0.4 71
2019-06-11 18:00:00 22.6 23 Oeste 54 Sudoeste 0 1004.9 -2.1 64
2019-06-11 17:00:00 21.9 26 Oeste 48 Sudoeste 0 1005.3 -1.8 65
2019-06-11 16:00:00 22.3 21 Oeste 48 Sudoeste 0 1006 -1.6 62
2019-06-11 15:00:00 20.9 15 Sudoeste 47 Oeste 0 1007 -1.4 69
2019-06-11 14:00:00 20.9 18 Oeste 56 Oeste 0 1007.1 -1.5 69
2019-06-11 13:00:00 19.8 28 Sudoeste 53 Sudoeste 0 1007.6 -0.8 70
2019-06-11 12:00:00 19.7 17 Oeste 34 Oeste 0 1008.4 0.1 75
2019-06-11 11:00:00 21 6 Oeste 27 Oeste 0 1008.6 0.5 74
2019-06-11 10:00:00 19 15 Sudoeste 24 Sudoeste 0 1008.4 0.5 86
2019-06-11 09:00:00 19.6 7 Sudoeste 18 Sudoeste 0 1008.3 0.1 80
2019-06-11 08:00:00 19.7 4 Sudoeste 12 Sudoeste 0 1008.1 -0.3 75
2019-06-11 07:00:00 18.6 5 Noroeste 18 Noroeste 0 1007.9 -1.2 76
2019-06-11 06:00:00 17.4 4 Oeste 17 Sur 0 1008.2 -1.7 86
2019-06-11 05:00:00 16.8 3 Sudoeste 8 Norte 0 1008.4 -1.9 94
2019-06-11 04:00:00 17.1 3 Oeste 15 Oeste 0 1009.1 -1.4 92
2019-06-11 03:00:00 17.4 5 Oeste 15 Noroeste 0 1009.9 -1.1 90
2019-06-11 02:00:00 17.6 6 Oeste 13 Oeste 0 1010.3 -0.6 90
2019-06-11 01:00:00 17.1 2 Nordeste 6 Norte 0 1010.5 0.4 87
2019-06-11 00:00:00 18.7 2 Noroeste 12 Noroeste 0 1011 0.6 84
2019-06-10 23:00:00 19.2 3 Noroeste 19 Oeste 0 1010.9 0.4 83
2019-06-10 22:00:00 19.5 9 Oeste 36 Oeste 0 1010.1 -0.8 77
2019-06-10 21:00:00 21.3 12 Oeste 26 Noroeste 0 1010.4 -1.2 69
2019-06-10 20:00:00 21.6 6 Noroeste 35 Sudoeste 0 1010.5 -1.5 70
2019-06-10 19:00:00 21.2 14 Sudoeste 40 Oeste 0 1010.9 -1.4 71
2019-06-10 18:00:00 21.7 15 Sudoeste 39 Sudoeste 0 1011.6 -1.1 69
2019-06-10 17:00:00 20.1 20 Sudoeste 46 Sudoeste 0 1012 -1.1 77
2019-06-10 16:00:00 20.3 26 Sudoeste 46 Sudoeste 0 1012.3 -1.3 75
2019-06-10 15:00:00 20.8 23 Sudoeste 47 Oeste 0 1012.7 -0.5 74
2019-06-10 14:00:00 20.5 21 Oeste 45 Oeste 0 1013.1 -0.2 73
2019-06-10 13:00:00 20.3 21 Sudoeste 41 Sudoeste 0 1013.6 0.4 74
2019-06-10 12:00:00 20.9 14 Oeste 37 Sudoeste 0 1013.2 0.4 74
2019-06-10 11:00:00 20.4 15 Oeste 33 Oeste 0 1013.3 1.5 71
2019-06-10 10:00:00 19.7 13 Sudoeste 24 Sudoeste 0 1013.2 1.4 76
2019-06-10 09:00:00 24.7 5 Noroeste 32 Norte 0 1012.8 1 42
2019-06-10 08:00:00 22.7 17 Norte 34 Norte 0 1011.8 -0.3 45
2019-06-10 07:00:00 22.1 10 Noroeste 28 Norte 0 1011.8 -0.3 43
2019-06-10 06:00:00 22.6 13 Noroeste 37 Noroeste 0 1011.8 -0.7 43
2019-06-10 05:00:00 23.5 12 Noroeste 31 Noroeste 0 1012.1 -1.4 43
2019-06-10 04:00:00 23.5 11 Noroeste 39 Norte 0 1012.1 -1.7 43
2019-06-10 03:00:00 19 0 Calma 11 Norte 0 1012.5 -1.5 80
2019-06-10 02:00:00 17.7 3 Norte 8 Sudoeste 0 1013.5 -0.4 83
2019-06-10 01:00:00 18 0 Calma 20 Oeste 0 1013.8 0 80
2019-06-10 00:00:00 19.5 15 Oeste 28 Oeste 0 1014 0.4 76
2019-06-09 23:00:00 19.9 13 Oeste 22 Oeste 0 1013.9 0.1 73
2019-06-09 22:00:00 20.9 6 Oeste 27 Oeste 0 1013.8 -0.1 70
2019-06-09 21:00:00 21.4 11 Oeste 35 Sudoeste 0 1013.6 -0.8 67
2019-06-09 20:00:00 20.9 13 Sudoeste 26 Sudoeste 0 1013.8 -1 71
2019-06-09 19:00:00 21.7 11 Sudoeste 25 Sudoeste 0 1013.9 -1.5 69
2019-06-09 18:00:00 21.1 11 Sudoeste 31 Sudoeste 0 1014.4 -1.6 80
2019-06-09 17:00:00 21.1 13 Sudoeste 34 Sudoeste 0 1014.8 -1.3 78
2019-06-09 16:00:00 20.3 15 Sudoeste 36 Oeste 0 1015.4 -1.2 87
2019-06-09 15:00:00 21.2 14 Sudoeste 24 Sudoeste 0 1016 -0.9 88
2019-06-09 14:00:00 20.3 14 Sudoeste 27 Sudoeste 0 1016.1 -0.5 91
2019-06-09 13:00:00 21.5 10 Sudoeste 29 Oeste 0 1016.6 -0.1 84
2019-06-09 12:00:00 21.1 10 Sudoeste 24 Sudoeste 0 1016.9 0.3 86
2019-06-09 11:00:00 21.2 7 Sudoeste 18 Sudoeste 0 1016.6 0 87
2019-06-09 10:00:00 21 8 Sudoeste 15 Oeste 0 1016.7 0.1 84
2019-06-09 09:00:00 20.6 0 Calma 9 Oeste 0 1016.6 0 85
2019-06-09 08:00:00 20 5 Noroeste 11 Oeste 0 1016.6 0 90
2019-06-09 07:00:00 19.7 6 Oeste 11 Sudoeste 0 1016.6 -0.7 94
2019-06-09 06:00:00 20 6 Oeste 10 Oeste 0 1016.6 -0.6 95
2019-06-09 05:00:00 19.9 4 Sudoeste 9 Sudoeste 0 1016.6 -0.9 95
2019-06-09 04:00:00 20.1 5 Sudoeste 11 Oeste 0 1017.3 -0.9 95
2019-06-09 03:00:00 19.6 4 Sudoeste 8 Sudoeste 0 1017.2 -0.7 96
2019-06-09 02:00:00 19.6 4 Sudoeste 11 Sudoeste 0 1017.5 -0.3 95
2019-06-09 01:00:00 19.8 6 Sur 15 Sudoeste 0 1018.2 1 94
2019-06-09 00:00:00 20.3 8 Sudeste 15 Sudeste 0 1017.9 1 90
2019-06-08 23:00:00 20.6 11 Sudeste 20 Sudeste 0 1017.8 1.1 87
2019-06-08 22:00:00 20.9 14 Este 24 Este 0 1017.2 0.5 85
2019-06-08 21:00:00 21.2 12 Sudeste 26 Sudeste 0 1016.9 -0.1 83
2019-06-08 20:00:00 21.4 17 Sudeste 32 Sudeste 0 1016.7 -0.2 82
2019-06-08 19:00:00 21.5 15 Sudeste 22 Sudeste 0 1016.7 -0.6 84
2019-06-08 18:00:00 21.1 13 Sur 20 Sur 0 1017 -0.4 84
2019-06-08 17:00:00 21.3 11 Sur 19 Sudoeste 0 1016.9 -0.8 83
2019-06-08 16:00:00 21.6 9 Sudoeste 21 Sur 0 1017.3 -0.2 82
2019-06-08 15:00:00 20.9 12 Sur 20 Sur 0 1017.4 -0.3 86
2019-06-08 14:00:00 21.5 13 Sur 24 Sudeste 0 1017.7 0.4 85
2019-06-08 13:00:00 20.6 20 Sudeste 32 Sudeste 0 1017.5 0.5 87
2019-06-08 12:00:00 20.6 16 Sudeste 59 Sudeste 0 1017.7 1.4 84
2019-06-08 11:00:00 20.7 20 Sudeste 30 Sudeste 0 1017.3 1.4 77
2019-06-08 10:00:00 21.7 17 Sudeste 23 Sudeste 0 1017 1.3 73
2019-06-08 09:00:00 21.6 0 Calma 7 Sur 0 1016.3 0.4 75
2019-06-08 08:00:00 18.9 0 Calma 8 Oeste 0 1015.9 0.4 84
2019-06-08 07:00:00 17.3 3 Noroeste 13 Noroeste 0 1015.7 0.4 85
2019-06-08 06:00:00 17.7 4 Noroeste 16 Oeste 0 1015.9 0.5 88
2019-06-08 05:00:00 17.4 0 Calma 10 Norte 0 1015.5 0.3 89
2019-06-08 04:00:00 17.6 3 Noroeste 11 Oeste 0 1015.3 0.4 84
2019-06-08 03:00:00 18.6 4 Oeste 11 Sudeste 0 1015.4 1 86
2019-06-08 02:00:00 17.7 3 Este 8 Este 0 1015.2 1 86
2019-06-08 01:00:00 17.8 5 Nordeste 9 Sur 0 1014.9 1 86
2019-06-08 00:00:00 19.4 5 Sudoeste 10 Oeste 0 1014.4 0.7 77
2019-06-07 23:00:00 19.5 4 Sudoeste 9 Sudoeste 0 1014.2 0.3 76
2019-06-07 22:00:00 21 3 Noroeste 19 Oeste 0 1013.9 0.1 70
2019-06-07 21:00:00 21.1 8 Noroeste 32 Oeste 0 1013.7 -0.2 70
2019-06-07 20:00:00 21 13 Oeste 35 Oeste 0 1013.9 -0.5 70
2019-06-07 19:00:00 20.9 16 Oeste 36 Sudoeste 0 1013.8 -0.9 73
2019-06-07 18:00:00 21.2 15 Sudoeste 35 Oeste 0 1013.9 -0.6 73
2019-06-07 17:00:00 21.8 7 Sudoeste 17 Sudoeste 0 1014.4 0.2 74
2019-06-07 16:00:00 21.4 4 Sur 15 Este 0 1014.7 1 76
2019-06-07 15:00:00 21.4 8 Sur 17 Sudoeste 0 1014.5 1.4 77
2019-06-07 14:00:00 20.8 10 Sur 36 Sudoeste 0 1014.2 1.3 80
2019-06-07 13:00:00 20.9 13 Sudoeste 39 Sudoeste 0 1013.7 1.3 76
2019-06-07 12:00:00 20.5 16 Sudoeste 37 Oeste 0 1013.1 1.6 75
2019-06-07 11:00:00 21.2 13 Oeste 30 Sudoeste 0 1012.9 1.8 68
2019-06-07 10:00:00 20.2 12 Sudoeste 31 Noroeste 0 1012.4 1.6 71
2019-06-07 09:00:00 23.1 10 Norte 29 Noroeste 0 1011.5 1.1 53
2019-06-07 08:00:00 21.5 14 Noroeste 29 Noroeste 0 1011.1 0.8 57
2019-06-07 07:00:00 16.8 6 Oeste 17 Oeste 0 1010.8 0.6 80
2019-06-07 06:00:00 16.1 4 Noroeste 13 Oeste 0 1010.4 0 81
2019-06-07 05:00:00 15.5 0 Calma 10 Oeste 0 1010.3 -0.4 85
2019-06-07 04:00:00 15.5 4 Norte 7 Norte 0 1010.2 -0.7 86
2019-06-07 03:00:00 16.4 3 Norte 13 Oeste 0 1010.4 -0.5 83
2019-06-07 02:00:00 17.5 6 Noroeste 24 Oeste 0 1010.7 0.1 83
2019-06-07 01:00:00 18.7 8 Oeste 19 Oeste 0 1010.9 1 77
2019-06-07 00:00:00 19.3 5 Noroeste 12 Oeste 0 1010.9 1.4 75
2019-06-06 23:00:00 19.3 5 Noroeste 15 Sudoeste 0 1010.6 1 75
2019-06-06 22:00:00 20.6 3 Noroeste 16 Oeste 0 1009.9 0.2 58
2019-06-06 21:00:00 21.5 9 Oeste 31 Oeste 0 1009.5 -0.6 55
2019-06-06 20:00:00 21.8 10 Oeste 28 Oeste 0 1009.6 -1.3 55
2019-06-06 19:00:00 22 13 Oeste 27 Oeste 0 1009.7 -1.8 57
2019-06-06 18:00:00 24 5 Sudoeste 20 Sudoeste 0 1010.1 -2.2 53
2019-06-06 17:00:00 21.6 12 Sudoeste 23 Oeste 0 1010.9 -1.7 61
2019-06-06 16:00:00 21.7 9 Sudoeste 24 Oeste 0 1011.5 -0.9 68
2019-06-06 15:00:00 20.7 12 Sudoeste 19 Sudoeste 0 1012.3 -0.1 78
2019-06-06 14:00:00 20.5 10 Sur 15 Sur 0 1012.6 0.8 77
2019-06-06 13:00:00 21.8 6 Sur 13 Sudeste 0 1012.4 0.4 73
2019-06-06 12:00:00 21 7 Sur 13 Sur 0 1012.4 0.7 77
2019-06-06 11:00:00 20.1 10 Sudoeste 14 Sur 0 1011.8 0.3 79
2019-06-06 10:00:00 23.6 4 Sudeste 15 Este 0 1012 0.9 61
2019-06-06 09:00:00 24.6 0 Calma 11 Sudeste 0 1011.7 0.7 45
2019-06-06 08:00:00 20 4 Sudeste 16 Oeste 0 1011.5 0.4 57
2019-06-06 07:00:00 18.4 3 Sudoeste 20 Oeste 0 1011.1 -0.1 55
2019-06-06 06:00:00 19.2 10 Oeste 17 Oeste 0 1011 -0.2 55
2019-06-06 05:00:00 19.4 3 Oeste 10 Noroeste 0 1011.1 -0.2 56
2019-06-06 04:00:00 21.2 5 Noroeste 12 Norte 0 1011.2 -0.1 44
2019-06-06 03:00:00 20.1 5 Noroeste 10 Norte 0 1011.2 -0.1 59
2019-06-06 02:00:00 20.2 3 Sudoeste 9 Sudoeste 0 1011.3 0.4 64
2019-06-06 01:00:00 19.4 0 Calma 9 Norte 0 1011.3 1.1 74
2019-06-06 00:00:00 19.5 3 Noroeste 33 Oeste 0 1011.3 1.3 76
2019-06-05 23:00:00 19.5 10 Oeste 28 Oeste 0 1010.9 1.2 80
2019-06-05 22:00:00 19.7 14 Oeste 45 Oeste 0 1010.2 0.6 77
2019-06-05 21:00:00 19.9 19 Oeste 42 Oeste 0 1010 0.2 76
2019-06-05 20:00:00 20.3 17 Oeste 45 Sudoeste 0 1009.7 -0.4 74
2019-06-05 19:00:00 20.7 22 Oeste 49 Oeste 0 1009.6 -0.7 73
2019-06-05 18:00:00 20.7 22 Oeste 46 Sudoeste 0 1009.8 -1 71
2019-06-05 17:00:00 21.1 23 Sudoeste 47 Oeste 0 1010.1 -0.4 65
2019-06-05 16:00:00 21.3 18 Sudoeste 49 Oeste 0 1010.3 -0.2 62
2019-06-05 15:00:00 21 24 Sudoeste 56 Sudoeste 0 1010.8 0.2 61
2019-06-05 14:00:00 21.6 25 Sudoeste 47 Oeste 0 1010.5 -0.1 59
2019-06-05 13:00:00 21.4 26 Sudoeste 47 Sudoeste 0 1010.5 0.2 56
2019-06-05 12:00:00 20.4 23 Sudoeste 46 Sudoeste 0 1010.6 0.6 60
2019-06-05 11:00:00 23.2 20 Oeste 40 Oeste 0 1010.6 1.1 36
2019-06-05 10:00:00 22.7 18 Noroeste 40 Noroeste 0 1010.3 1.5 43
2019-06-05 09:00:00 22.1 13 Noroeste 33 Noroeste 0 1010 1.9 51
2019-06-05 08:00:00 21.8 15 Noroeste 39 Noroeste 0 1009.5 1.1 55
2019-06-05 07:00:00 20.4 13 Oeste 31 Oeste 0 1008.8 0.1 77
2019-06-05 06:00:00 19.9 19 Oeste 33 Oeste 0 1008.1 -0.8 88
2019-06-05 05:00:00 19.5 10 Oeste 30 Oeste 0 1008.4 -0.4 89
2019-06-05 04:00:00 19.7 10 Oeste 27 Oeste 0 1008.7 -0.2 89
2019-06-05 03:00:00 20 13 Oeste 27 Oeste 0 1008.9 0.6 90
2019-06-05 02:00:00 20.1 8 Oeste 27 Oeste 0 1008.8 0.6 87
2019-06-05 01:00:00 20.8 15 Oeste 33 Sudoeste 0 1008.9 0.9 84
2019-06-05 00:00:00 21.3 4 Oeste 10 Oeste 0 1008.3 0 77
2019-06-04 23:00:00 21.4 2 Este 6 Oeste 0 1008.2 0 77
2019-06-04 22:00:00 21.8 5 Oeste 11 Oeste 0 1008 -0.4 77
2019-06-04 21:00:00 22.5 3 Oeste 15 Sudoeste 0 1008.3 -0.5 74
2019-06-04 20:00:00 23.1 3 Sur 13 Sudoeste 0 1008.2 -1.5 74
2019-06-04 19:00:00 23.5 5 Sur 15 Sudoeste 0 1008.4 -2.3 74
2019-06-04 18:00:00 23.9 5 Sudeste 12 Sur 0 1008.8 -3.1 66
2019-06-04 17:00:00 23.8 5 Sur 12 Sur 0 1009.7 -2.7 74
2019-06-04 16:00:00 23.1 6 Sudeste 16 Sudoeste 0 1010.7 -2.4 75
2019-06-04 15:00:00 20.6 11 Sur 19 Sur 0 1011.9 -0.3 86
2019-06-04 14:00:00 21.1 10 Sudoeste 19 Sudoeste 0 1012.4 -0.1 87
2019-06-04 13:00:00 21.2 10 Sudoeste 18 Sudoeste 0 1013.1 0.5 85
2019-06-04 12:00:00 21.6 10 Sudoeste 18 Sur 0 1012.2 -0.3 75
2019-06-04 11:00:00 21.2 10 Sudoeste 19 Oeste 0 1012.5 0.5 70
2019-06-04 10:00:00 20.5 7 Sur 12 Sudoeste 0 1012.6 0.7 70
2019-06-04 09:00:00 22.7 2 Norte 8 Norte 0 1012.5 0.8 65
2019-06-04 08:00:00 19.7 2 Norte 9 Norte 0 1012 0.3 67
2019-06-04 07:00:00 15.6 6 Nordeste 9 Nordeste 0 1011.9 -0.2 77
2019-06-04 06:00:00 15.7 5 Nordeste 7 Norte 0 1011.7 -1.2 80
2019-06-04 05:00:00 16.1 2 Noroeste 6 Norte 0 1011.7 -2.1 77
2019-06-04 04:00:00 17.2 0 Calma 6 Noroeste 0 1012.1 -2.2 77
2019-06-04 03:00:00 17.4 0 Calma 6 Nordeste 0 1012.9 -1.7 77
2019-06-04 02:00:00 17.6 0 Calma 5 Noroeste 0 1013.8 -1 77
2019-06-04 01:00:00 18.8 0 Calma 6 Nordeste 0 1014.3 -0.1 77
2019-06-04 00:00:00 19.4 3 Nordeste 6 Noroeste 0 1014.6 0.2 80
2019-06-03 23:00:00 20.3 3 Noroeste 7 Oeste 0 1014.8 0 80
2019-06-03 22:00:00 21 3 Oeste 12 Sudoeste 0 1014.4 -0.5 70
2019-06-03 21:00:00 23.1 0 Calma 10 Oeste 0 1014.4 -0.7 66
2019-06-03 20:00:00 21.7 6 Sudoeste 16 Sudoeste 0 1014.8 -0.8 77
2019-06-03 19:00:00 21.1 10 Sudoeste 15 Sudoeste 0 1014.9 -1.4 84
2019-06-03 18:00:00 21.1 7 Sur 12 Sur 0 1015.1 -1.6 84
2019-06-03 17:00:00 21.1 7 Sur 13 Sur 0 1015.6 -1.6 85
2019-06-03 16:00:00 22 6 Sudeste 14 Sudoeste 0 1016.3 -1.2 77
2019-06-03 15:00:00 21.1 8 Sur 14 Sur 0 1016.7 -0.8 85
2019-06-03 14:00:00 20.8 10 Sur 16 Sur 0 1017.2 -0.2 85
2019-06-03 13:00:00 21.6 10 Sur 17 Sudeste 0 1017.5 0.2 84
2019-06-03 12:00:00 21.5 8 Sur 13 Sudeste 0 1017.5 0.9 81
2019-06-03 11:00:00 21.6 9 Sur 14 Sur 0 1017.4 1 74
2019-06-03 10:00:00 24.6 5 Sudeste 6 Sudeste 0 1017.3 0.8 52
2019-06-03 09:00:00 25.8 0 Calma 9 Nordeste 0 1016.6 0.5 52
2019-06-03 08:00:00 19.2 5 Nordeste 8 Nordeste 0 1016.4 0.3 66
2019-06-03 07:00:00 15.9 3 Norte 5 Nordeste 0 1016.5 -0.3 76
2019-06-03 06:00:00 16.5 2 Nordeste 10 Nordeste 0 1016.1 -1.4 73
2019-06-03 05:00:00 16.7 0 Calma 6 Nordeste 0 1016.1 -1.8 73
2019-06-03 04:00:00 17.5 3 Nordeste 6 Norte 0 1016.8 -1.5 70
2019-06-03 03:00:00 17.5 3 Norte 5 Norte 0 1017.5 -0.8 73
2019-06-03 02:00:00 18.3 0 Calma 5 Nordeste 0 1017.9 0 71
2019-06-03 01:00:00 19.3 2 Este 4 Noroeste 0 1018.3 1 73
2019-06-03 00:00:00 19.4 2 Norte 6 Nordeste 0 1018.3 1.4 71
2019-06-02 23:00:00 20 4 Nordeste 7 Nordeste 0 1017.9 1.3 67
2019-06-02 22:00:00 20.8 3 Oeste 9 Sudoeste 0 1017.3 0.5 65
2019-06-02 21:00:00 21.1 6 Sudoeste 9 Sur 0 1016.9 -0.5 65
2019-06-02 20:00:00 21.9 6 Sur 10 Sur 0 1016.6 -1.2 61
2019-06-02 19:00:00 22 6 Sur 14 Sudoeste 0 1016.8 -0.9 59
2019-06-02 18:00:00 22 9 Sudoeste 20 Sudoeste 0 1017.4 -1.1 60
2019-06-02 17:00:00 22.5 10 Sudoeste 18 Sudoeste 0 1017.8 -0.9 60
2019-06-02 16:00:00 22 9 Sudoeste 17 Sudoeste 0 1017.7 -1.2 60
2019-06-02 15:00:00 22.6 10 Sudoeste 18 Sudoeste 0 1018.5 -0.2 58
2019-06-02 14:00:00 22.7 10 Sudoeste 19 Sudoeste 0 1018.7 0.1 63
2019-06-02 13:00:00 22.9 10 Sudoeste 18 Sudoeste 0 1018.9 0.7 55
2019-06-02 12:00:00 20.6 12 Sur 17 Sur 0 1018.7 0.5 70
2019-06-02 11:00:00 21.5 9 Sudoeste 17 Sudoeste 0 1018.6 0.4 61
2019-06-02 10:00:00 24.6 5 Sudeste 8 Sudeste 0 1018.2 0.2 56
2019-06-02 09:00:00 25.2 0 Calma 6 Noroeste 0 1018.2 0.4 54
2019-06-02 08:00:00 20.4 0 Calma 4 Nordeste 0 1018.2 0.1 66
2019-06-02 07:00:00 16.1 0 Calma 3 Noroeste 0 1018 -0.5 74
2019-06-02 06:00:00 16.2 0 Calma 6 Nordeste 0 1017.8 -1 74
2019-06-02 05:00:00 16.6 3 Nordeste 5 Norte 0 1018.1 -1.1 76
2019-06-02 04:00:00 16.8 0 Calma 9 Nordeste 0 1018.5 -0.9 75
2019-06-02 03:00:00 17.4 4 Nordeste 6 Nordeste 0 1018.8 -0.7 74
2019-06-02 02:00:00 18.2 3 Nordeste 6 Nordeste 0 1019.2 0.2 70
2019-06-02 01:00:00 19.2 2 Este 6 Nordeste 0 1019.4 1.1 71
2019-06-02 00:00:00 19.4 3 Nordeste 10 Norte 0 1019.5 1.7 71
2019-06-01 23:00:00 19.8 2 Norte 9 Noroeste 0 1019 1.3 70
2019-06-01 22:00:00 21 2 Nordeste 27 Sudeste 0 1018.3 0.3 62
2019-06-01 21:00:00 21.8 21 Sudeste 30 Sudeste 0 1017.8 -0.5 62
2019-06-01 20:00:00 21.6 13 Sur 25 Sudeste 0 1017.7 -1.2 61
2019-06-01 19:00:00 21.6 10 Sudoeste 32 Sur 0 1018 -1.5 62
2019-06-01 18:00:00 22.2 13 Sudoeste -- -- 0 1018.3 -1.2 61
2019-06-01 17:00:00 22.7 15 Sudeste 21 Sudeste 0 1018.9 -0.9 60
2019-06-01 16:00:00 22.5 10 Sudoeste 22 Sudoeste 0 1019.5 -0.3 57
2019-06-01 15:00:00 21.7 11 Sudoeste 20 Sudoeste 0 1019.5 -0.5 57
2019-06-01 14:00:00 23.2 12 Sur 40 Sur 0 1019.8 0.3 54
2019-06-01 13:00:00 22.4 14 Sur 22 Sur 0 1019.8 0.3 54
2019-06-01 12:00:00 21.1 14 Sur 20 Sur 0 1020 0.7 60
2019-06-01 11:00:00 22.2 9 Sur 14 Sudoeste 0 1019.5 0.4 58
2019-06-01 10:00:00 22.2 5 Sudoeste -- -- 0 1019.5 0.6 64
2019-06-01 09:00:00 23 0 Calma 5 Este 0 1019.3 0.6 66
2019-06-01 08:00:00 19.3 0 Calma 5 Nordeste 0 1019.1 -0.1 86
2019-06-01 07:00:00 16.4 3 Nordeste 9 Nordeste 0 1018.9 -0.5 91
2019-06-01 06:00:00 16.2 3 Norte 4 Norte 0 1018.7 -0.9 93
2019-06-01 05:00:00 16.5 0 Calma 5 Nordeste 0 1019.2 -1 91
2019-06-01 04:00:00 16.9 3 Nordeste 5 Nordeste 0 1019.4 -0.9 91
2019-06-01 03:00:00 17.3 0 Calma 6 Nordeste 0 1019.6 -0.5 90
2019-06-01 02:00:00 17.7 3 Nordeste 6 Norte 0 1020.2 0.4 90
2019-06-01 01:00:00 19.3 4 Noroeste 12 Oeste 0 1020.3 1.8 90
2019-06-01 00:00:00 19.5 5 Oeste 18 Noroeste 0 1020.1 2.4 86
2019-05-31 23:00:00 19.6 8 Noroeste 21 Oeste 0 1019.8 1.8 87
2019-05-31 22:00:00 20.6 7 Noroeste 18 Este 0 1018.5 0.3 75
2019-05-31 21:00:00 22.6 15 Sudeste 22 Este 0 1017.7 -0.9 64
2019-05-31 20:00:00 24 7 Noroeste 26 Este 0 1018 -1.1 60
2019-05-31 19:00:00 23.6 22 Sudeste 32 Sudeste 0 1018.2 -1.3 60
2019-05-31 18:00:00 22.1 25 Sudeste 32 Sur 0 1018.6 -1 67
2019-05-31 17:00:00 21.7 24 Sudeste 33 Sudeste 0 1019.1 -1.1 69
2019-05-31 16:00:00 22.6 23 Sudeste 36 Sudeste 0 1019.5 -1.2 62
2019-05-31 15:00:00 23.8 21 Sudeste 44 Este 0 1019.6 -1.2 56
2019-05-31 14:00:00 22.5 27 Este 48 Este 0 1020.2 -0.6 59
2019-05-31 13:00:00 23.2 23 Este 42 Este 0 1020.7 -0.3 55
2019-05-31 12:00:00 22.7 26 Este 36 Este 0 1020.8 0.3 55
2019-05-31 11:00:00 24.3 4 Sudeste 11 Sur 0 1020.8 0.3 59
2019-05-31 10:00:00 21.3 6 Sudoeste 11 Sudoeste 0 1021 0.9 64
2019-05-31 09:00:00 20.6 5 Oeste 9 Oeste 0 1020.5 0.2 68
2019-05-31 08:00:00 18.7 0 Calma 8 Nordeste 0 1020.5 0.2 77
2019-05-31 07:00:00 15.8 4 Nordeste 8 Nordeste 0 1020.1 -0.3 86
2019-05-31 06:00:00 15.5 3 Noroeste 8 Nordeste 0 1020.3 -0.4 86
2019-05-31 05:00:00 16.4 5 Nordeste 11 Nordeste 0 1020.3 -1 86
2019-05-31 04:00:00 16.4 3 Nordeste 8 Nordeste 0 1020.4 -1.4 85
2019-05-31 03:00:00 16.9 0 Calma 5 Noroeste 0 1020.7 -1.7 85
2019-05-31 02:00:00 16.9 0 Calma 5 Nordeste 0 1021.3 -0.7 81
2019-05-31 01:00:00 17.8 3 Sudeste 5 Este 0 1021.8 0.2 81
2019-05-31 00:00:00 19.3 3 Nordeste 6 Norte 0 1022.4 1.3 80
2019-05-30 23:00:00 19.4 0 Calma 21 Este 0 1022 1.2 77
2019-05-30 22:00:00 20.2 10 Este 24 Sudeste 0 1021.6 0.4 74
2019-05-30 21:00:00 21.6 14 Sudeste 23 Este 0 1021.1 -0.3 64
2019-05-30 20:00:00 21.9 18 Este 32 Este 0 1020.8 -1 58
2019-05-30 19:00:00 22.9 13 Este 33 Este 0 1021.2 -0.6 56
2019-05-30 18:00:00 22.7 18 Este 43 Este 0 1021.4 -0.8 56
2019-05-30 17:00:00 22.6 24 Este 40 Este 0 1021.8 -0.5 54
2019-05-30 16:00:00 22.9 25 Este 37 Este 0 1021.8 -0.6 52
2019-05-30 15:00:00 22.9 24 Este 42 Sudeste 0 1022.2 -0.6 52
2019-05-30 14:00:00 21.8 25 Sudeste 40 Sudeste 0 1022.3 -0.2 60
2019-05-30 13:00:00 21.8 27 Este 41 Este 0 1022.4 0 57
2019-05-30 12:00:00 21.6 22 Sudeste 28 Sudeste 0 1022.8 0.7 66
2019-05-30 11:00:00 21.9 14 Sudeste 28 Sudeste 0 1022.5 0.9 64
2019-05-30 10:00:00 20.6 21 Este 29 Sudeste 0 1022.4 1.2 69
2019-05-30 09:00:00 21.9 3 Sudeste 6 Sudeste 0 1022.1 1.4 69
2019-05-30 08:00:00 19.1 0 Calma 5 Norte 0 1021.6 0.9 84
2019-05-30 07:00:00 16 3 Norte 8 Sudeste 0 1021.2 0.5 86
2019-05-30 06:00:00 16.7 0 Calma 7 Norte 0 1020.7 -0.2 86
2019-05-30 05:00:00 17 2 Nordeste 5 Norte 0 1020.7 -0.6 84
2019-05-30 04:00:00 17.6 3 Norte 8 Este 0 1020.7 -0.6 77
2019-05-30 03:00:00 18.6 3 Este 12 Este 0 1020.9 0.1 75
2019-05-30 02:00:00 19.3 6 Este 15 Sudeste 0 1021.3 0.9 73
2019-05-30 01:00:00 19.4 8 Este 18 Este 0 1021.3 1.9 74
2019-05-30 00:00:00 19.7 14 Este 20 Este 0 1020.8 2.1 80
2019-05-29 23:00:00 19.7 12 Este 24 Este 0 1020.4 2.3 80
2019-05-29 22:00:00 19.7 12 Este 27 Este 0 1019.4 1.6 77
2019-05-29 21:00:00 20.3 18 Este 34 Este 0 1018.7 1 75
2019-05-29 20:00:00 20.6 27 Este 38 Este 0 1018.1 0.3 73
2019-05-29 19:00:00 21.3 22 Este 37 Este 0 1017.8 -0.2 65
2019-05-29 18:00:00 21.7 24 Sudeste 37 Sudeste 0 1017.7 -0.3 68
2019-05-29 17:00:00 21 27 Sudeste 42 Sudeste 0 1017.8 -0.5 77
2019-05-29 16:00:00 21.1 29 Sudeste 39 Sudeste 0 1018 -0.5 75
2019-05-29 15:00:00 21.6 26 Sudeste 34 Sudeste 0 1018 0 75
2019-05-29 14:00:00 21.7 26 Sudeste 38 Sudeste 0 1018.3 0.2 72
2019-05-29 13:00:00 21.9 22 Sudeste 34 Sudeste 0 1018.5 0.8 67
2019-05-29 12:00:00 22.9 22 Sudeste 30 Sudeste 0 1018 1 61
2019-05-29 11:00:00 22 8 Sudoeste 13 Sur 0 1018.1 1.6 79
2019-05-29 10:00:00 21.4 7 Sur 12 Sudoeste 0 1017.7 2.1 77
2019-05-29 09:00:00 22.5 4 Sudeste 7 Sudeste 0 1017 1.8 77
2019-05-29 08:00:00 20.2 0 Calma 8 Norte 0 1016.5 1.8 86
2019-05-29 07:00:00 17.6 3 Este 9 Norte 0 1015.6 1 91
2019-05-29 06:00:00 19 0 Calma 6 Noroeste 0 1015.2 1.1 89
2019-05-29 05:00:00 18.7 3 Nordeste 8 Nordeste 0 1014.7 0.7 89
2019-05-29 04:00:00 19.2 2 Norte 12 Sudeste 0 1014.6 1.1 89
2019-05-29 03:00:00 19.3 2 Norte 7 Este 0 1014.1 0.8 88
2019-05-29 02:00:00 19.5 4 Noroeste 9 Oeste 0 1014 1.3 85
2019-05-29 01:00:00 19.5 0 Calma 7 Noroeste 0 1013.5 1.5 93
2019-05-29 00:00:00 20.2 4 Sudoeste 8 Noroeste 0 1013.3 1.8 92
2019-05-28 23:00:00 20.3 5 Noroeste 10 Noroeste 0 1012.7 1.7 91
2019-05-28 22:00:00 20.7 4 Noroeste 22 Sudeste 0 1012 1 89
2019-05-28 21:00:00 21.2 18 Sudeste 24 Sudeste 0 1011.5 0.6 84
2019-05-28 20:00:00 21.3 18 Sudeste 24 Sudeste 0 1011 0.1 85
2019-05-28 19:00:00 21.2 8 Sur 21 Sudeste 0 1011 0 90
2019-05-28 18:00:00 21.5 15 Sur 26 Sudeste 0 1010.9 -0.3 89
2019-05-28 17:00:00 21.6 14 Sudeste 26 Sudeste 0 1010.9 -0.2 87
2019-05-28 16:00:00 21.4 19 Sudeste 30 Sudeste 0 1011 0 86
2019-05-28 15:00:00 21.7 21 Sudeste 32 Sudeste 0 1011.2 0.5 83
2019-05-28 14:00:00 21.5 23 Sudeste 33 Sudeste 0 1011.1 0.5 81
2019-05-28 13:00:00 21.4 24 Sudeste 31 Sudeste 0 1011 0.7 77
2019-05-28 12:00:00 21 24 Sudeste 32 Sudeste 0 1010.7 0.8 83
2019-05-28 11:00:00 21.6 18 Sudeste 24 Sudeste 0 1010.6 0.8 76
2019-05-28 10:00:00 23.4 6 Sudeste 9 Sur 0 1010.3 1.2 66
2019-05-28 09:00:00 25.5 0 Calma 5 Sudeste 0 1009.9 0.9 61
2019-05-28 08:00:00 20.2 0 Calma 7 Norte 0 1009.8 0.8 81
2019-05-28 07:00:00 17.9 4 Nordeste 8 Norte 0 1009.1 0.3 88
2019-05-28 06:00:00 17.7 5 Nordeste 9 Nordeste 0 1009 -0.2 82
2019-05-28 05:00:00 17.5 0 Calma 6 Nordeste 0 1009 -0.4 80
2019-05-28 04:00:00 18.2 5 Nordeste 7 Nordeste 0 1008.8 -1.2 76
2019-05-28 03:00:00 18.9 4 Nordeste 8 Nordeste 0 1009.2 -1.1 77
2019-05-28 02:00:00 19.4 0 Calma 7 Norte 0 1009.4 -0.8 76
2019-05-28 01:00:00 19.4 3 Norte 5 Norte 0 1010 0.1 80
2019-05-28 00:00:00 19.3 0 Calma 6 Sudoeste 0 1010.3 0.3 80
2019-05-27 23:00:00 20.3 4 Sudoeste 8 Oeste 0 1010.2 0.4 75
2019-05-27 22:00:00 20.4 5 Oeste 9 Oeste 0 1009.9 -0.1 73
2019-05-27 21:00:00 21.3 6 Sudoeste 11 Sur 0 1010 -0.3 66
2019-05-27 20:00:00 21.9 6 Sudoeste 9 Sudoeste 0 1009.8 -0.5 53
2019-05-27 19:00:00 22.4 6 Sudoeste 12 Sudoeste 0 1010 -1.2 59
2019-05-27 18:00:00 22.9 6 Sur 15 Sudoeste 0 1010.3 -1.5 65
2019-05-27 17:00:00 22.4 8 Sur 15 Sudoeste 0 1010.3 -2.1 64
2019-05-27 16:00:00 21.3 10 Sur 15 Sudoeste 0 1011.2 -1.3 67
2019-05-27 15:00:00 21.4 9 Sur 17 Sudoeste 0 1011.8 -1 70
2019-05-27 14:00:00 21 9 Sur 15 Sur 0 1012.4 -0.7 73
2019-05-27 13:00:00 21.3 8 Sur 13 Sudoeste 0 1012.5 -0.2 71
2019-05-27 12:00:00 21.1 7 Sudoeste 12 Sudoeste 0 1012.8 0.6 73
2019-05-27 11:00:00 19.8 9 Sudoeste 12 Sudoeste 0 1013.1 0.6 69
2019-05-27 10:00:00 20.9 6 Sur 10 Sudoeste 0 1012.7 0.6 61
2019-05-27 09:00:00 23.8 0 Calma 4 Norte 0 1012.2 0.3 54
2019-05-27 08:00:00 19.4 0 Calma 5 Norte 0 1012.5 0.7 70
2019-05-27 07:00:00 15.9 2 Nordeste 8 Este 0 1012.1 -0.1 74
2019-05-27 06:00:00 16.5 0 Calma 6 Noroeste 0 1011.9 -1.1 77
2019-05-27 05:00:00 17.1 0 Calma 8 Sur 0 1011.8 -2 77
2019-05-27 04:00:00 16.8 0 Calma 9 Norte 0 1012.2 -1.8 80
2019-05-27 03:00:00 17.3 5 Nordeste 12 Nordeste 0 1013 -1.3 76
2019-05-27 02:00:00 17.3 0 Calma 11 Noroeste 0 1013.8 -0.6 86
2019-05-27 01:00:00 17.6 5 Noroeste 12 Oeste 0 1014 0.2 80
2019-05-27 00:00:00 18.4 0 Calma 7 Oeste 0 1014.3 0.7 88
2019-05-26 23:00:00 19.3 3 Sudoeste 6 Sudoeste 0 1014.4 0.7 85
2019-05-26 22:00:00 19.6 4 Sudoeste 10 Oeste 0 1013.8 0.1 82
2019-05-26 21:00:00 20.4 5 Oeste 10 Sudoeste 0 1013.6 -0.7 76
2019-05-26 20:00:00 20.9 6 Sur 12 Sur 0 1013.7 -1.2 77
2019-05-26 19:00:00 21.3 6 Sur 13 Sur 0 1013.7 -1.6 76
2019-05-26 18:00:00 20.1 9 Sur 13 Sudoeste 0 1014.3 -1.7 77
2019-05-26 17:00:00 20.8 8 Sur 15 Sur 0 1014.9 -1.4 75
2019-05-26 16:00:00 21.1 9 Sur 14 Sur 0 1015.3 -1.3 74
2019-05-26 15:00:00 21.4 8 Sur 15 Sudoeste 0 1016 -0.8 73
2019-05-26 14:00:00 20.9 9 Sur 15 Sur 0 1016.3 -0.3 71
2019-05-26 13:00:00 20.8 8 Sur 13 Sur 0 1016.6 0.3 70
2019-05-26 12:00:00 21.5 8 Sur 14 Sudoeste 0 1016.8 0.4 68
2019-05-26 11:00:00 20.1 8 Sur 15 Sudoeste 0 1016.6 0.1 65
2019-05-26 10:00:00 21.5 7 Oeste 19 Sudoeste 0 1016.3 0.1 55
2019-05-26 09:00:00 23.7 0 Calma 4 Sur 0 1016.4 0 57
2019-05-26 08:00:00 17.9 0 Calma 4 Norte 0 1016.5 0 75
2019-05-26 07:00:00 16 4 Nordeste 11 Norte 0 1016.2 -0.5 77
2019-05-26 06:00:00 15.8 3 Nordeste 7 Nordeste 0 1016.4 -0.5 80
2019-05-26 05:00:00 15.9 0 Calma 5 Norte 0 1016.5 -0.7 81
2019-05-26 04:00:00 16.2 3 Este 5 Este 0 1016.7 -0.6 81
2019-05-26 03:00:00 16.7 0 Calma 5 Nordeste 0 1016.9 -0.6 84
2019-05-26 02:00:00 17.7 3 Noroeste 5 Noroeste 0 1017.2 -0.2 85
2019-05-26 01:00:00 17.6 0 Calma 8 Nordeste 0 1017.3 0.6 77
2019-05-26 00:00:00 17.8 3 Este 5 Este 0 1017.5 1.4 89
2019-05-25 23:00:00 19.4 2 Sudeste 7 Sur 0 1017.4 1.6 86
2019-05-25 22:00:00 19.3 5 Sur 8 Sur 0 1016.7 0.9 82
2019-05-25 21:00:00 20.4 3 Sudeste 7 Sudeste 0 1016.1 0.8 74
2019-05-25 20:00:00 21.5 5 Sudeste 10 Sudeste 0 1015.8 0.6 73
2019-05-25 19:00:00 22 6 Sudeste 10 Sudeste 0 1015.8 0.1 69
2019-05-25 18:00:00 21.8 5 Sur 10 Sur 0 1015.3 -0.6 69
2019-05-25 17:00:00 21.3 6 Sur 12 Sur 0 1015.2 -0.4 70
2019-05-25 16:00:00 23.2 8 Sudeste 13 Sudeste 0 1015.7 -0.1 64
2019-05-25 15:00:00 22.8 8 Sudeste 13 Sudeste 0 1015.9 0.4 61
2019-05-25 14:00:00 22.7 8 Sur 13 Sur 0 1015.6 0.7 60
2019-05-25 13:00:00 21.9 7 Sur 14 Sur 0 1015.8 1 60
2019-05-25 12:00:00 21.5 8 Sudoeste 15 Sudoeste 0 1015.5 1.1 60
2019-05-25 11:00:00 20.9 8 Sudoeste 13 Sudoeste 0 1014.9 1.2 73
2019-05-25 10:00:00 20.2 3 Sudeste 7 Sudoeste 0 1014.8 1.5 77
2019-05-25 09:00:00 19.6 4 Sur 7 Sur 0 1014.4 1.5 75
2019-05-25 08:00:00 19.2 3 Oeste 8 Oeste 0 1013.7 0.7 76
2019-05-25 07:00:00 19.3 5 Oeste 9 Sudoeste 0 1013.3 0.5 74
2019-05-25 06:00:00 19.4 5 Sur 11 Sur 0 1012.9 0.1 74
2019-05-25 05:00:00 19.3 6 Sudeste 8 Sudeste 0 1013 0.2 83
2019-05-25 04:00:00 19.3 3 Norte 10 Noroeste 0 1012.8 -0.1 83
2019-05-25 03:00:00 19.1 3 Noroeste 12 Sudeste 0 1012.8 0.5 85
2019-05-25 02:00:00 19.3 12 Sudeste 23 Sudeste 0 1012.8 1.3 82
2019-05-25 01:00:00 19.4 15 Este 27 Sudeste 0 1012.9 2.5 85
2019-05-25 00:00:00 19.5 16 Este 28 Este 0 1012.3 3.5 90